Farley, Iowa
Current Conditions -  °F | °C
As of 6:53 AM on Saturday 25 Oct 2014 (Local Time) from KDBQ Reporting Station
Clear Clear  
Wind Chill: 52°   Ceiling: Unl
Heat Index: 52°   Visibility: 10mi
Dew Point: 48°   Wind: 12mph
Humidity: 86%   Direction: 320°NW
Pressure: 29.96"   Gusts: NA
Location:  42.44°N, 91.01°W
Report Text: KDBQ 251153Z 32010KT 10SM CLR 11/09 A2996 RMK AO2 SLP146 T01110089 10150 20106 53010
Loading
Personal Weather Stations






























Interactive Weather Map
Tropical Storm Tracking
New forecast layout! Learn more

10-Day Weather Forecast

Advertisements
Track Severe Weather on mobile